Time;durP1;ratioP1;P1;durP2;ratioP2;P2;SDS_P1;SDS_P2;PMS_P1;PMS_P2;Temp;Humidity;BMP_temperature;BMP_pressure;BME280_temperature;BME280_humidity;BME280_pressure;Samples;Min_cycle;Max_cycle;Signal;HPM_P1;HPM_P2
2023/09/05 00:00:16;;;;;;;2.15;1.40;;;;;;;;;;4384364;32;315997;-80
2023/09/05 00:02:48;;;;;;;1.85;1.20;;;;;;;;;;4372367;32;316941;-80
2023/09/05 00:05:18;;;;;;;1.30;1.20;;;;;;;;;;4383987;32;316737;-84
2023/09/05 00:07:45;;;;;;;1.80;1.30;;;;;;;;;;4353936;32;316540;-81
2023/09/05 00:10:14;;;;;;;1.40;1.30;;;;;;;;;;4379660;32;316875;-81
2023/09/05 00:12:43;;;;;;;1.75;1.40;;;;;;;;;;4374012;32;316716;-79
2023/09/05 00:15:11;;;;;;;1.45;1.30;;;;;;;;;;4383751;32;316637;-79
2023/09/05 00:17:39;;;;;;;1.30;1.20;;;;;;;;;;4370825;32;317015;-81
2023/09/05 00:20:09;;;;;;;1.70;1.27;;;;;;;;;;4380529;32;316953;-80
2023/09/05 00:22:37;;;;;;;1.73;1.40;;;;;;;;;;4373777;32;315607;-78
2023/09/05 00:25:06;;;;;;;1.52;1.30;;;;;;;;;;4381138;32;315731;-79
2023/09/05 00:27:34;;;;;;;2.05;1.40;;;;;;;;;;4374462;32;316944;-81
2023/09/05 00:30:02;;;;;;;1.77;1.40;;;;;;;;;;4380586;32;316717;-79
2023/09/05 00:32:32;;;;;;;2.00;1.42;;;;;;;;;;4384942;32;317102;-78
2023/09/05 00:35:00;;;;;;;6.07;1.50;;;;;;;;;;4370594;32;416962;-79
2023/09/05 00:37:30;;;;;;;3.72;1.45;;;;;;;;;;4385098;32;316941;-85
2023/09/05 00:39:57;;;;;;;1.35;1.20;;;;;;;;;;4370655;32;316818;-79
2023/09/05 00:42:24;;;;;;;2.20;1.23;;;;;;;;;;4381219;32;316512;-78
2023/09/05 00:44:52;;;;;;;1.52;1.33;;;;;;;;;;4373083;32;316939;-79
2023/09/05 00:47:22;;;;;;;4.35;1.33;;;;;;;;;;4385894;32;317074;-79
2023/09/05 00:49:49;;;;;;;1.50;1.25;;;;;;;;;;4369869;32;316809;-79
2023/09/05 00:52:22;;;;;;;1.20;1.10;;;;;;;;;;4384150;32;317086;-78
2023/09/05 00:54:51;;;;;;;1.50;1.40;;;;;;;;;;4374431;32;316861;-81
2023/09/05 00:57:18;;;;;;;1.67;1.30;;;;;;;;;;4385357;32;316732;-80
2023/09/05 00:59:46;;;;;;;1.40;1.15;;;;;;;;;;4369888;32;316654;-79
2023/09/05 01:02:13;;;;;;;1.27;1.12;;;;;;;;;;4384845;32;316656;-79
2023/09/05 01:04:41;;;;;;;1.30;1.10;;;;;;;;;;4373036;32;316964;-79
2023/09/05 01:07:16;;;;;;;1.85;1.50;;;;;;;;;;4382762;32;316881;-79
2023/09/05 01:09:50;;;;;;;2.30;1.08;;;;;;;;;;4373996;32;316681;-80
2023/09/05 01:12:20;;;;;;;1.12;0.95;;;;;;;;;;4383657;32;317007;-81
2023/09/05 01:14:47;;;;;;;1.48;1.10;;;;;;;;;;4370556;32;348384;-85
2023/09/05 01:17:15;;;;;;;1.42;1.17;;;;;;;;;;4381162;32;316741;-80
2023/09/05 01:19:44;;;;;;;1.33;1.23;;;;;;;;;;4371727;32;316832;-80
2023/09/05 01:22:22;;;;;;;1.40;1.20;;;;;;;;;;4383259;32;316949;-79
2023/09/05 01:24:51;;;;;;;2.10;1.30;;;;;;;;;;4374048;32;316672;-80
2023/09/05 01:27:22;;;;;;;1.10;0.98;;;;;;;;;;4382386;32;316705;-81
2023/09/05 01:29:51;;;;;;;3.37;1.05;;;;;;;;;;4369410;32;316751;-79
2023/09/05 01:32:20;;;;;;;4.90;1.40;;;;;;;;;;4382297;32;316992;-80
2023/09/05 01:34:47;;;;;;;1.67;1.10;;;;;;;;;;4372401;32;316765;-81
2023/09/05 01:37:15;;;;;;;1.50;1.17;;;;;;;;;;4383132;32;316689;-79
2023/09/05 01:39:43;;;;;;;1.95;1.30;;;;;;;;;;4368864;32;316912;-83
2023/09/05 01:42:12;;;;;;;2.65;1.50;;;;;;;;;;4383310;32;316591;-78
2023/09/05 01:44:40;;;;;;;5.60;1.50;;;;;;;;;;4373090;32;316787;-78
2023/09/05 01:47:07;;;;;;;1.55;1.45;;;;;;;;;;4383883;32;316668;-78
2023/09/05 01:49:34;;;;;;;1.30;1.20;;;;;;;;;;4372392;32;316690;-79
2023/09/05 01:52:02;;;;;;;2.12;1.35;;;;;;;;;;4378015;32;316577;-78
2023/09/05 01:54:29;;;;;;;1.30;1.20;;;;;;;;;;4383886;32;316497;-85
2023/09/05 01:56:56;;;;;;;1.27;1.10;;;;;;;;;;4371308;32;346360;-80
2023/09/05 01:59:25;;;;;;;1.27;1.17;;;;;;;;;;4384150;32;316985;-80
2023/09/05 02:01:53;;;;;;;1.12;1.02;;;;;;;;;;4370405;32;316675;-79
2023/09/05 02:04:20;;;;;;;3.37;1.42;;;;;;;;;;4383318;32;316854;-79
2023/09/05 02:06:48;;;;;;;2.12;1.40;;;;;;;;;;4371581;32;316930;-82
2023/09/05 02:09:15;;;;;;;1.98;1.20;;;;;;;;;;4382473;32;316432;-80
2023/09/05 02:11:42;;;;;;;1.63;1.50;;;;;;;;;;4369993;32;316629;-78
2023/09/05 02:14:10;;;;;;;1.50;1.20;;;;;;;;;;4379672;32;317088;-78
2023/09/05 02:16:39;;;;;;;6.20;4.60;;;;;;;;;;4373342;32;316945;-85
2023/09/05 02:19:06;;;;;;;3.50;1.80;;;;;;;;;;4381067;32;316724;-79
2023/09/05 02:21:34;;;;;;;4.30;3.33;;;;;;;;;;4370966;32;329856;-80
2023/09/05 02:24:01;;;;;;;8.30;3.42;;;;;;;;;;4379104;32;317057;-78
2023/09/05 02:26:28;;;;;;;5.43;4.32;;;;;;;;;;4383029;32;316713;-78
2023/09/05 02:28:58;;;;;;;9.60;6.37;;;;;;;;;;4372599;32;316931;-79
2023/09/05 02:31:28;;;;;;;9.13;6.03;;;;;;;;;;4380847;32;317078;-78
2023/09/05 02:33:57;;;;;;;5.75;4.90;;;;;;;;;;4368349;32;317106;-79
2023/09/05 02:36:24;;;;;;;4.62;3.33;;;;;;;;;;4383352;32;316868;-79
2023/09/05 02:38:51;;;;;;;2.30;2.10;;;;;;;;;;4372551;32;331303;-81
2023/09/05 02:41:19;;;;;;;2.58;2.20;;;;;;;;;;4382313;32;316950;-85
2023/09/05 02:43:47;;;;;;;2.67;1.90;;;;;;;;;;4370168;32;316776;-83
2023/09/05 02:46:15;;;;;;;2.70;2.40;;;;;;;;;;4383682;32;316805;-78
2023/09/05 02:48:43;;;;;;;2.50;2.05;;;;;;;;;;4369948;32;316787;-77
2023/09/05 02:51:14;;;;;;;2.12;1.92;;;;;;;;;;4383000;32;316911;-84
2023/09/05 02:53:41;;;;;;;2.33;2.10;;;;;;;;;;4370782;32;316988;-85
2023/09/05 02:56:09;;;;;;;3.20;2.40;;;;;;;;;;4378081;32;316893;-78
2023/09/05 02:58:36;;;;;;;2.80;2.50;;;;;;;;;;4373277;32;316805;-84
2023/09/05 03:01:05;;;;;;;3.55;2.92;;;;;;;;;;4380391;32;316813;-81
2023/09/05 03:03:33;;;;;;;3.80;2.28;;;;;;;;;;4377737;32;316854;-82
2023/09/05 03:06:11;;;;;;;2.53;2.33;;;;;;;;;;4379240;32;317094;-82
2023/09/05 03:08:42;;;;;;;3.40;2.30;;;;;;;;;;4373360;32;316751;-82
2023/09/05 03:11:09;;;;;;;3.62;2.95;;;;;;;;;;4384337;32;317034;-78
2023/09/05 03:13:37;;;;;;;3.00;2.70;;;;;;;;;;4371731;32;317205;-79
2023/09/05 03:16:04;;;;;;;3.97;2.67;;;;;;;;;;4378152;32;316740;-79
2023/09/05 03:18:32;;;;;;;3.12;2.83;;;;;;;;;;4383447;32;317105;-78
2023/09/05 03:20:59;;;;;;;3.30;2.92;;;;;;;;;;4368405;32;415801;-78
2023/09/05 03:23:27;;;;;;;3.35;2.90;;;;;;;;;;4380295;32;317257;-78
2023/09/05 03:25:56;;;;;;;3.50;2.45;;;;;;;;;;4369273;32;316946;-78
2023/09/05 03:28:24;;;;;;;6.93;2.70;;;;;;;;;;4380948;32;317116;-78
2023/09/05 03:30:53;;;;;;;3.93;2.50;;;;;;;;;;4372301;32;317025;-79
2023/09/05 03:33:20;;;;;;;3.10;2.58;;;;;;;;;;4385139;32;317069;-86
2023/09/05 03:35:48;;;;;;;8.00;2.83;;;;;;;;;;4369510;32;316827;-85
2023/09/05 03:38:15;;;;;;;3.78;2.75;;;;;;;;;;4385641;32;317182;-77
2023/09/05 03:40:43;;;;;;;6.45;5.57;;;;;;;;;;4371729;32;316874;-84
2023/09/05 03:43:11;;;;;;;10.70;6.65;;;;;;;;;;4385015;32;317126;-77
2023/09/05 03:45:40;;;;;;;8.65;5.75;;;;;;;;;;4372576;32;318119;-86
2023/09/05 03:48:08;;;;;;;14.07;4.70;;;;;;;;;;4381717;32;315654;-79
2023/09/05 03:50:35;;;;;;;6.00;4.72;;;;;;;;;;4374001;32;318251;-78
2023/09/05 03:53:03;;;;;;;4.55;4.12;;;;;;;;;;4382979;32;317048;-78
2023/09/05 03:55:34;;;;;;;5.37;4.62;;;;;;;;;;4383075;32;317078;-83
2023/09/05 03:58:02;;;;;;;4.28;3.78;;;;;;;;;;4368487;32;415680;-78
2023/09/05 04:00:33;;;;;;;6.87;4.28;;;;;;;;;;4385726;32;317442;-78
2023/09/05 04:03:02;;;;;;;6.20;4.00;;;;;;;;;;4371520;32;415983;-79
2023/09/05 04:05:30;;;;;;;4.95;4.35;;;;;;;;;;4382872;32;343841;-79
2023/09/05 04:07:57;;;;;;;10.15;5.10;;;;;;;;;;4372305;32;316907;-86
2023/09/05 04:10:25;;;;;;;5.47;4.62;;;;;;;;;;4386180;32;331345;-78
2023/09/05 04:12:52;;;;;;;5.82;4.43;;;;;;;;;;4375387;32;316745;-78
2023/09/05 04:15:22;;;;;;;5.25;4.03;;;;;;;;;;4384631;32;316631;-79
2023/09/05 04:17:52;;;;;;;5.20;4.70;;;;;;;;;;4371836;32;316977;-81
2023/09/05 04:20:19;;;;;;;9.20;4.43;;;;;;;;;;4385762;32;316845;-80
2023/09/05 04:22:47;;;;;;;5.80;4.40;;;;;;;;;;4374119;32;317030;-80
2023/09/05 04:25:14;;;;;;;6.80;5.30;;;;;;;;;;4385622;32;317182;-82
2023/09/05 04:27:43;;;;;;;6.60;5.25;;;;;;;;;;4371254;32;317175;-84
2023/09/05 04:30:12;;;;;;;6.97;4.68;;;;;;;;;;4385183;32;316992;-81
2023/09/05 04:32:42;;;;;;;6.12;5.50;;;;;;;;;;4372792;32;317142;-81
2023/09/05 04:35:11;;;;;;;7.32;5.25;;;;;;;;;;4382417;32;316794;-80
2023/09/05 04:37:42;;;;;;;7.25;4.90;;;;;;;;;;4374232;32;317167;-81
2023/09/05 04:40:10;;;;;;;5.45;4.50;;;;;;;;;;4383432;32;340694;-80
2023/09/05 04:42:39;;;;;;;6.22;5.62;;;;;;;;;;4373895;32;316754;-78
2023/09/05 04:45:07;;;;;;;6.87;5.47;;;;;;;;;;4384708;32;317158;-81
2023/09/05 04:47:35;;;;;;;8.63;5.47;;;;;;;;;;4373802;32;316987;-83
2023/09/05 04:50:02;;;;;;;5.85;5.00;;;;;;;;;;4381978;32;316709;-81
2023/09/05 04:52:31;;;;;;;5.93;5.30;;;;;;;;;;4384428;32;316787;-78
2023/09/05 04:55:00;;;;;;;8.32;5.95;;;;;;;;;;4370544;32;416795;-81
2023/09/05 04:57:27;;;;;;;6.55;5.20;;;;;;;;;;4384210;32;316744;-80
2023/09/05 04:59:59;;;;;;;7.10;5.10;;;;;;;;;;4369709;32;317126;-80
2023/09/05 05:02:26;;;;;;;9.00;5.55;;;;;;;;;;4383349;32;316691;-81
2023/09/05 05:04:54;;;;;;;5.47;4.62;;;;;;;;;;4373277;32;316984;-79
2023/09/05 05:07:22;;;;;;;9.75;6.75;;;;;;;;;;4382408;32;316655;-78
2023/09/05 05:09:52;;;;;;;7.18;6.07;;;;;;;;;;4371489;32;317040;-82
2023/09/05 05:12:20;;;;;;;10.02;6.82;;;;;;;;;;4383067;32;317052;-78
2023/09/05 05:14:47;;;;;;;7.53;6.05;;;;;;;;;;4374348;32;317861;-80
2023/09/05 05:17:14;;;;;;;8.10;5.97;;;;;;;;;;4383089;32;316892;-78
2023/09/05 05:19:42;;;;;;;9.27;5.78;;;;;;;;;;4373368;32;316893;-79
2023/09/05 05:22:11;;;;;;;10.18;5.60;;;;;;;;;;4379810;32;316873;-79
2023/09/05 05:24:38;;;;;;;12.80;11.50;;;;;;;;;;4373137;32;317961;-79
2023/09/05 05:27:07;;;;;;;8.13;6.10;;;;;;;;;;4382471;32;318806;-79
2023/09/05 05:29:35;;;;;;;7.75;6.15;;;;;;;;;;4368360;32;317011;-80
2023/09/05 05:32:03;;;;;;;11.25;6.10;;;;;;;;;;4380576;32;316872;-78
2023/09/05 05:34:31;;;;;;;9.30;5.57;;;;;;;;;;4384049;32;317818;-82
2023/09/05 05:36:58;;;;;;;8.05;5.57;;;;;;;;;;4370396;32;419258;-77
2023/09/05 05:39:26;;;;;;;9.52;6.03;;;;;;;;;;4381602;32;316611;-81
2023/09/05 05:41:53;;;;;;;15.65;7.05;;;;;;;;;;4368401;32;316951;-82
2023/09/05 05:44:23;;;;;;;9.80;6.00;;;;;;;;;;4380781;32;317875;-82
2023/09/05 05:46:50;;;;;;;16.45;6.35;;;;;;;;;;4374628;32;316905;-82
2023/09/05 05:49:17;;;;;;;8.45;6.30;;;;;;;;;;4382619;32;317767;-81
2023/09/05 05:51:45;;;;;;;6.82;6.12;;;;;;;;;;4370633;32;328245;-81
2023/09/05 05:54:13;;;;;;;10.90;6.30;;;;;;;;;;4378950;32;317112;-81
2023/09/05 05:56:40;;;;;;;7.85;7.00;;;;;;;;;;4370816;32;318172;-81
2023/09/05 05:59:08;;;;;;;8.07;6.57;;;;;;;;;;4381249;32;342565;-82
2023/09/05 06:01:37;;;;;;;10.15;7.30;;;;;;;;;;4371102;32;317097;-86
2023/09/05 06:04:05;;;;;;;11.52;6.18;;;;;;;;;;4380632;32;318016;-84
2023/09/05 06:06:33;;;;;;;8.95;7.07;;;;;;;;;;4380235;32;317779;-83
2023/09/05 06:09:01;;;;;;;7.68;6.40;;;;;;;;;;4368570;32;416351;-83
2023/09/05 06:11:29;;;;;;;8.13;6.75;;;;;;;;;;4382581;32;316885;-83
2023/09/05 06:13:56;;;;;;;9.25;7.28;;;;;;;;;;4368697;32;316841;-83
2023/09/05 06:16:24;;;;;;;13.07;7.25;;;;;;;;;;4381785;32;316957;-83
2023/09/05 06:18:53;;;;;;;8.35;7.45;;;;;;;;;;4372649;32;318033;-83
2023/09/05 06:21:20;;;;;;;8.40;6.85;;;;;;;;;;4382406;32;316841;-83
2023/09/05 06:23:51;;;;;;;10.23;6.70;;;;;;;;;;4372030;32;317042;-84
2023/09/05 06:26:18;;;;;;;8.82;7.40;;;;;;;;;;4383800;32;318103;-81
2023/09/05 06:28:47;;;;;;;8.70;7.67;;;;;;;;;;4370285;32;317093;-80
2023/09/05 06:31:15;;;;;;;11.93;6.82;;;;;;;;;;4382019;32;353322;-80
2023/09/05 06:33:46;;;;;;;12.05;7.78;;;;;;;;;;4371208;32;317686;-85
2023/09/05 06:36:15;;;;;;;7.57;6.75;;;;;;;;;;4383607;32;317764;-89
2023/09/05 06:38:44;;;;;;;8.73;7.03;;;;;;;;;;4373445;32;316882;-80
2023/09/05 06:41:12;;;;;;;13.05;7.80;;;;;;;;;;4382259;32;316683;-81
2023/09/05 06:43:40;;;;;;;12.55;7.72;;;;;;;;;;4372545;32;318091;-80
2023/09/05 06:46:09;;;;;;;9.02;7.78;;;;;;;;;;4377711;32;317773;-87
2023/09/05 06:48:36;;;;;;;8.55;7.65;;;;;;;;;;4372890;32;316775;-87
2023/09/05 06:51:04;;;;;;;9.18;7.30;;;;;;;;;;4382830;32;316659;-88
2023/09/05 06:53:34;;;;;;;11.52;6.95;;;;;;;;;;4382260;32;316679;-80
2023/09/05 06:56:01;;;;;;;15.32;7.68;;;;;;;;;;4365802;32;417901;-80
2023/09/05 06:58:28;;;;;;;10.05;7.93;;;;;;;;;;4383994;32;318071;-80
2023/09/05 07:00:56;;;;;;;13.23;8.02;;;;;;;;;;4372260;32;318197;-80
2023/09/05 07:03:23;;;;;;;11.32;8.10;;;;;;;;;;4383101;32;317833;-80
2023/09/05 07:05:51;;;;;;;9.90;8.57;;;;;;;;;;4367391;32;317726;-85
2023/09/05 07:08:18;;;;;;;9.70;8.00;;;;;;;;;;4381031;32;316734;-87
2023/09/05 07:10:49;;;;;;;9.15;7.78;;;;;;;;;;4371756;32;316959;-82
2023/09/05 07:13:17;;;;;;;10.05;8.00;;;;;;;;;;4382923;32;316766;-81
2023/09/05 07:15:46;;;;;;;10.30;8.07;;;;;;;;;;4372554;32;317784;-85
2023/09/05 07:18:14;;;;;;;10.00;8.60;;;;;;;;;;4381082;32;317910;-80
2023/09/05 07:20:41;;;;;;;9.60;8.45;;;;;;;;;;4373073;32;317972;-80
2023/09/05 07:23:09;;;;;;;13.60;7.70;;;;;;;;;;4382280;32;316903;-82
2023/09/05 07:25:39;;;;;;;10.15;7.28;;;;;;;;;;4371652;32;317832;-83
2023/09/05 07:28:08;;;;;;;8.07;7.28;;;;;;;;;;4379055;32;317859;-80
2023/09/05 07:30:36;;;;;;;10.93;7.68;;;;;;;;;;4373851;32;316742;-82
2023/09/05 07:33:04;;;;;;;13.45;7.10;;;;;;;;;;4381141;32;317886;-87
2023/09/05 07:35:31;;;;;;;11.55;8.80;;;;;;;;;;4382854;32;317727;-84
2023/09/05 07:37:59;;;;;;;12.77;7.97;;;;;;;;;;4365221;32;417200;-88
2023/09/05 07:40:26;;;;;;;9.77;7.50;;;;;;;;;;4381961;32;317753;-88
2023/09/05 07:42:55;;;;;;;10.07;8.02;;;;;;;;;;4371861;32;317040;-84
2023/09/05 07:45:25;;;;;;;11.60;7.55;;;;;;;;;;4382780;32;317615;-84
2023/09/05 07:47:53;;;;;;;9.18;7.05;;;;;;;;;;4364473;32;317956;-82
2023/09/05 07:50:21;;;;;;;7.90;7.10;;;;;;;;;;4379813;32;316671;-82
2023/09/05 07:52:48;;;;;;;10.70;7.43;;;;;;;;;;4368448;32;316722;-80
2023/09/05 07:55:15;;;;;;;12.73;7.90;;;;;;;;;;4382277;32;317809;-87
2023/09/05 07:57:44;;;;;;;8.57;7.43;;;;;;;;;;4368267;32;335462;-85
2023/09/05 08:00:15;;;;;;;8.75;7.53;;;;;;;;;;4382143;32;316631;-82
2023/09/05 08:02:44;;;;;;;8.98;7.30;;;;;;;;;;4372915;32;316968;-83
2023/09/05 08:05:12;;;;;;;11.02;7.37;;;;;;;;;;4381724;32;316753;-82
2023/09/05 08:07:40;;;;;;;12.63;6.93;;;;;;;;;;4369477;32;317908;-82
2023/09/05 08:10:10;;;;;;;10.20;6.55;;;;;;;;;;4381776;32;317915;-78
2023/09/05 08:12:37;;;;;;;10.30;7.85;;;;;;;;;;4370626;32;317935;-81
2023/09/05 08:15:06;;;;;;;14.20;5.90;;;;;;;;;;4373618;32;317824;-81
2023/09/05 08:17:33;;;;;;;13.07;6.80;;;;;;;;;;4374969;32;317801;-81
2023/09/05 08:20:04;;;;;;;9.50;6.55;;;;;;;;;;4379086;32;317814;-80
2023/09/05 08:22:32;;;;;;;7.30;6.60;;;;;;;;;;4385421;32;316659;-81
2023/09/05 08:25:00;;;;;;;16.45;6.85;;;;;;;;;;4371349;32;386913;-80
2023/09/05 08:27:29;;;;;;;7.20;5.90;;;;;;;;;;4382399;32;349941;-83
2023/09/05 08:29:57;;;;;;;8.55;6.37;;;;;;;;;;4369964;32;317036;-85
2023/09/05 08:32:25;;;;;;;7.50;6.70;;;;;;;;;;4382836;32;316685;-84
2023/09/05 08:34:52;;;;;;;7.25;5.90;;;;;;;;;;4373964;32;317202;-85
2023/09/05 08:37:21;;;;;;;8.23;5.68;;;;;;;;;;4382419;32;317364;-83
2023/09/05 08:39:49;;;;;;;6.75;5.95;;;;;;;;;;4370951;32;316695;-88
2023/09/05 08:42:16;;;;;;;14.00;6.65;;;;;;;;;;4383151;32;317204;-82
2023/09/05 08:44:45;;;;;;;7.32;6.50;;;;;;;;;;4374134;32;358799;-81
2023/09/05 08:47:12;;;;;;;10.82;6.20;;;;;;;;;;4384843;32;316858;-80
2023/09/05 08:49:40;;;;;;;7.60;5.87;;;;;;;;;;4370769;32;317687;-84
2023/09/05 08:52:10;;;;;;;8.85;5.95;;;;;;;;;;4383920;32;316754;-86
2023/09/05 08:54:40;;;;;;;9.82;6.37;;;;;;;;;;4374976;32;316689;-82
2023/09/05 08:57:07;;;;;;;7.22;6.45;;;;;;;;;;4384813;32;316805;-83
2023/09/05 08:59:35;;;;;;;7.55;6.32;;;;;;;;;;4373088;32;316681;-83
2023/09/05 09:02:03;;;;;;;9.20;6.12;;;;;;;;;;4378425;32;316925;-83
2023/09/05 09:04:31;;;;;;;19.90;5.90;;;;;;;;;;4384187;32;316583;-83
2023/09/05 09:07:00;;;;;;;10.50;6.25;;;;;;;;;;4371522;32;417226;-82
2023/09/05 09:09:35;;;;;;;7.47;5.53;;;;;;;;;;4382740;32;317729;-81
2023/09/05 09:12:05;;;;;;;10.27;6.40;;;;;;;;;;4370340;32;415823;-84
2023/09/05 09:14:33;;;;;;;12.00;5.85;;;;;;;;;;4382018;32;317774;-80
2023/09/05 09:17:01;;;;;;;6.90;5.72;;;;;;;;;;4368410;32;416994;-80
2023/09/05 09:19:29;;;;;;;8.48;6.18;;;;;;;;;;4383787;32;316993;-82
2023/09/05 09:22:01;;;;;;;8.15;6.60;;;;;;;;;;4369770;32;316761;-85
2023/09/05 09:24:35;;;;;;;10.85;5.97;;;;;;;;;;4382334;32;316763;-83
2023/09/05 09:27:04;;;;;;;7.53;5.50;;;;;;;;;;4369297;32;417716;-82
2023/09/05 09:29:32;;;;;;;6.60;5.78;;;;;;;;;;4383107;32;335977;-84
2023/09/05 09:32:03;;;;;;;7.15;5.80;;;;;;;;;;4367075;32;416056;-83
2023/09/05 09:34:31;;;;;;;8.48;6.60;;;;;;;;;;4382357;32;316845;-85
2023/09/05 09:36:59;;;;;;;8.70;6.35;;;;;;;;;;4370225;32;415573;-82
2023/09/05 09:39:28;;;;;;;7.40;6.00;;;;;;;;;;4381947;32;316775;-85
2023/09/05 09:41:59;;;;;;;10.82;6.53;;;;;;;;;;4359127;32;316891;-87
2023/09/05 09:44:30;;;;;;;7.03;5.70;;;;;;;;;;4383097;32;317727;-83
2023/09/05 09:46:59;;;;;;;9.38;6.82;;;;;;;;;;4373125;32;316792;-84
2023/09/05 09:49:28;;;;;;;8.93;5.95;;;;;;;;;;4383136;32;316691;-87
2023/09/05 09:51:57;;;;;;;7.00;6.28;;;;;;;;;;4369576;32;316787;-85
2023/09/05 09:54:31;;;;;;;16.55;6.40;;;;;;;;;;4383444;32;325823;-84
2023/09/05 09:57:03;;;;;;;7.00;6.28;;;;;;;;;;4369350;32;416977;-85
2023/09/05 09:59:35;;;;;;;6.18;5.45;;;;;;;;;;4382412;32;336947;-82
2023/09/05 10:02:09;;;;;;;8.30;6.75;;;;;;;;;;4365249;32;415857;-84
2023/09/05 10:04:37;;;;;;;7.55;6.70;;;;;;;;;;4374058;32;316761;-83
2023/09/05 10:07:07;;;;;;;9.18;6.50;;;;;;;;;;4383972;32;316730;-87
2023/09/05 10:09:37;;;;;;;11.50;6.43;;;;;;;;;;4372101;32;316881;-83
2023/09/05 10:12:07;;;;;;;8.10;6.68;;;;;;;;;;4380236;32;317571;-85
2023/09/05 10:14:38;;;;;;;10.85;6.15;;;;;;;;;;4372548;32;316920;-87
2023/09/05 10:17:06;;;;;;;11.30;6.35;;;;;;;;;;4382640;32;352487;-88
2023/09/05 10:19:34;;;;;;;13.88;5.35;;;;;;;;;;4374788;32;317721;-84
2023/09/05 10:22:03;;;;;;;12.50;5.40;;;;;;;;;;4380896;32;318046;-87
2023/09/05 10:24:32;;;;;;;9.85;5.50;;;;;;;;;;4381317;32;317762;-89
2023/09/05 10:27:00;;;;;;;8.15;5.57;;;;;;;;;;4371010;32;415968;-86
2023/09/05 10:29:42;;;;;;;17.65;6.28;;;;;;;;;;4382929;32;316607;-86
2023/09/05 10:32:09;;;;;;;5.80;5.07;;;;;;;;;;4365590;32;417233;-88
2023/09/05 10:35:02;;;;;;;11.43;5.55;;;;;;;;;;4369243;32;347169;-85
2023/09/05 10:37:54;;;;;;;7.35;5.50;;;;;;;;;;4381908;32;317758;-82
2023/09/05 10:40:35;;;;;;;9.80;5.62;;;;;;;;;;4368873;32;388087;-84
2023/09/05 10:43:04;;;;;;;10.73;5.90;;;;;;;;;;4368837;32;417192;-84
2023/09/05 10:45:34;;;;;;;7.65;4.97;;;;;;;;;;4381634;32;318058;-86
2023/09/05 10:48:04;;;;;;;7.87;5.47;;;;;;;;;;4368405;32;418546;-87
2023/09/05 10:50:32;;;;;;;7.37;4.47;;;;;;;;;;4382481;32;316806;-84
2023/09/05 10:53:22;;;;;;;5.20;4.37;;;;;;;;;;4367756;32;416038;-84
2023/09/05 10:55:50;;;;;;;13.07;4.12;;;;;;;;;;4366402;32;317078;-87
2023/09/05 10:58:40;;;;;;;8.18;5.05;;;;;;;;;;4382335;32;317783;-86
2023/09/05 11:01:51;;;;;;;10.40;4.45;;;;;;;;;;4368678;32;416983;-86
2023/09/05 11:04:29;;;;;;;18.77;5.87;;;;;;;;;;4369229;32;418203;-86
2023/09/05 11:06:59;;;;;;;9.95;4.72;;;;;;;;;;4372124;32;317888;-82
2023/09/05 11:09:27;;;;;;;7.97;5.80;;;;;;;;;;4381731;32;316773;-86
2023/09/05 11:11:55;;;;;;;11.23;4.68;;;;;;;;;;4366613;32;316721;-82
2023/09/05 11:14:33;;;;;;;9.57;4.80;;;;;;;;;;4380763;32;317871;-87
2023/09/05 11:17:02;;;;;;;6.32;4.25;;;;;;;;;;4369206;32;417039;-83
2023/09/05 11:19:37;;;;;;;8.00;4.12;;;;;;;;;;4383323;32;316974;-85
2023/09/05 11:22:10;;;;;;;8.93;4.70;;;;;;;;;;4364980;32;415988;-86
2023/09/05 11:24:38;;;;;;;7.15;4.30;;;;;;;;;;4369778;32;316664;-86
2023/09/05 11:27:07;;;;;;;10.10;4.65;;;;;;;;;;4380644;32;316655;-84
2023/09/05 11:29:35;;;;;;;9.23;4.45;;;;;;;;;;4368805;32;317743;-81
2023/09/05 11:32:04;;;;;;;11.82;3.97;;;;;;;;;;4376893;32;316567;-81
2023/09/05 11:34:33;;;;;;;7.25;4.32;;;;;;;;;;4381352;32;318223;-86
2023/09/05 11:37:01;;;;;;;6.28;3.92;;;;;;;;;;4369112;32;416067;-85
2023/09/05 11:39:28;;;;;;;11.52;3.95;;;;;;;;;;4382029;32;316651;-84
2023/09/05 11:41:58;;;;;;;13.35;4.28;;;;;;;;;;4367920;32;317991;-86
2023/09/05 11:44:46;;;;;;;8.32;4.22;;;;;;;;;;4381037;32;317798;-81
2023/09/05 11:47:16;;;;;;;6.47;3.85;;;;;;;;;;4366551;32;419065;-81
2023/09/05 11:49:45;;;;;;;9.05;4.05;;;;;;;;;;4368077;32;325133;-83
2023/09/05 11:52:14;;;;;;;28.77;7.82;;;;;;;;;;4382737;32;316602;-81
2023/09/05 11:54:42;;;;;;;42.42;7.68;;;;;;;;;;4373123;32;318087;-81
2023/09/05 11:57:09;;;;;;;29.42;6.90;;;;;;;;;;4384860;32;320891;-80
2023/09/05 11:59:41;;;;;;;22.25;5.10;;;;;;;;;;4374689;32;318010;-83
2023/09/05 12:02:10;;;;;;;6.95;3.92;;;;;;;;;;4383621;32;318443;-82
2023/09/05 12:04:39;;;;;;;22.15;6.12;;;;;;;;;;4373452;32;316649;-80
2023/09/05 12:07:06;;;;;;;17.17;5.05;;;;;;;;;;4383674;32;350998;-83
2023/09/05 12:09:34;;;;;;;7.82;3.72;;;;;;;;;;4376014;32;317982;-83
2023/09/05 12:12:12;;;;;;;16.67;5.80;;;;;;;;;;4382245;32;316763;-84
2023/09/05 12:14:52;;;;;;;26.08;6.07;;;;;;;;;;4373588;32;317850;-82
2023/09/05 12:17:21;;;;;;;10.85;3.92;;;;;;;;;;4383010;32;318449;-81
2023/09/05 12:19:55;;;;;;;4.62;3.05;;;;;;;;;;4371702;32;317937;-82
2023/09/05 12:22:32;;;;;;;75.20;9.57;;;;;;;;;;4386265;32;316566;-84
2023/09/05 12:25:10;;;;;;;18.55;6.15;;;;;;;;;;4371195;32;417384;-82
2023/09/05 12:27:38;;;;;;;8.90;4.22;;;;;;;;;;4373163;32;317714;-83
2023/09/05 12:30:08;;;;;;;13.60;4.15;;;;;;;;;;4382956;32;316925;-82
2023/09/05 12:32:37;;;;;;;20.35;4.78;;;;;;;;;;4375787;32;317756;-82
2023/09/05 12:35:06;;;;;;;5.90;3.78;;;;;;;;;;4382583;32;318163;-84
2023/09/05 12:37:34;;;;;;;11.20;4.40;;;;;;;;;;4374995;32;316772;-85
2023/09/05 12:40:05;;;;;;;9.38;3.72;;;;;;;;;;4379133;32;317742;-81
2023/09/05 12:42:32;;;;;;;5.28;3.35;;;;;;;;;;4383244;32;339159;-82
2023/09/05 12:45:00;;;;;;;10.73;3.53;;;;;;;;;;4371112;32;416485;-83
2023/09/05 12:47:27;;;;;;;9.05;3.53;;;;;;;;;;4385114;32;317698;-82
2023/09/05 12:49:58;;;;;;;5.03;2.78;;;;;;;;;;4370494;32;316845;-86
2023/09/05 12:52:29;;;;;;;8.88;3.17;;;;;;;;;;4383216;32;316639;-82
2023/09/05 12:54:57;;;;;;;5.20;3.17;;;;;;;;;;4373665;32;316561;-83
2023/09/05 12:57:25;;;;;;;6.47;3.05;;;;;;;;;;4384056;32;317000;-82
2023/09/05 12:59:55;;;;;;;7.53;3.58;;;;;;;;;;4368488;32;316515;-83
2023/09/05 13:02:23;;;;;;;6.50;3.65;;;;;;;;;;4384263;32;316711;-84
2023/09/05 13:04:50;;;;;;;5.07;4.22;;;;;;;;;;4374208;32;317200;-82
2023/09/05 13:07:17;;;;;;;3.22;2.55;;;;;;;;;;4382937;32;316770;-82
2023/09/05 13:09:49;;;;;;;7.35;2.92;;;;;;;;;;4371137;32;316943;-85
2023/09/05 13:12:17;;;;;;;14.75;4.28;;;;;;;;;;4384173;32;316517;-85
2023/09/05 13:14:45;;;;;;;13.18;3.85;;;;;;;;;;4372869;32;317775;-83
2023/09/05 13:17:13;;;;;;;14.80;3.75;;;;;;;;;;4381458;32;335916;-82
2023/09/05 13:19:42;;;;;;;5.97;3.97;;;;;;;;;;4373516;32;317923;-84
2023/09/05 13:22:10;;;;;;;6.18;3.78;;;;;;;;;;4379630;32;317030;-83
2023/09/05 13:24:39;;;;;;;4.40;3.10;;;;;;;;;;4374101;32;316994;-83
2023/09/05 13:27:08;;;;;;;7.60;3.42;;;;;;;;;;4383552;32;317003;-82
2023/09/05 13:29:36;;;;;;;17.15;3.42;;;;;;;;;;4373076;32;316604;-82
2023/09/05 13:32:07;;;;;;;4.00;3.47;;;;;;;;;;4378607;32;317939;-82
2023/09/05 13:34:34;;;;;;;4.60;2.87;;;;;;;;;;4372443;32;316915;-82
2023/09/05 13:37:02;;;;;;;7.05;3.60;;;;;;;;;;4384064;32;316615;-82
2023/09/05 13:39:31;;;;;;;3.90;3.10;;;;;;;;;;4382906;32;316893;-82
2023/09/05 13:41:58;;;;;;;5.47;3.42;;;;;;;;;;4369177;32;324763;-83
2023/09/05 13:44:28;;;;;;;6.95;3.35;;;;;;;;;;4383766;32;316735;-83
2023/09/05 13:46:56;;;;;;;6.28;4.00;;;;;;;;;;4373972;32;317075;-83
2023/09/05 13:49:23;;;;;;;8.40;2.83;;;;;;;;;;4377135;32;316859;-82
2023/09/05 13:51:51;;;;;;;17.65;3.08;;;;;;;;;;4369812;32;316966;-84
2023/09/05 13:54:24;;;;;;;5.53;3.45;;;;;;;;;;4379753;32;318295;-84
2023/09/05 13:56:52;;;;;;;7.33;2.73;;;;;;;;;;4369366;32;317069;-83
2023/09/05 13:59:19;;;;;;;11.82;3.40;;;;;;;;;;4382411;32;317007;-82
2023/09/05 14:01:49;;;;;;;4.22;3.53;;;;;;;;;;4372420;32;317989;-78
2023/09/05 14:04:17;;;;;;;4.03;2.92;;;;;;;;;;4381423;32;316787;-77
2023/09/05 14:06:46;;;;;;;11.80;3.40;;;;;;;;;;4371601;32;316998;-81
2023/09/05 14:09:15;;;;;;;6.37;3.78;;;;;;;;;;4380857;32;334010;-79
2023/09/05 14:11:42;;;;;;;5.95;3.47;;;;;;;;;;4382426;32;317165;-79
2023/09/05 14:14:10;;;;;;;4.20;3.30;;;;;;;;;;4366829;32;415912;-80
2023/09/05 14:16:38;;;;;;;8.40;2.85;;;;;;;;;;4380481;32;316886;-79
2023/09/05 14:19:07;;;;;;;8.82;3.53;;;;;;;;;;4367130;32;316788;-79
2023/09/05 14:21:35;;;;;;;5.50;3.22;;;;;;;;;;4382518;32;316926;-79
2023/09/05 14:24:02;;;;;;;8.05;3.80;;;;;;;;;;4369888;32;316931;-79
2023/09/05 14:26:30;;;;;;;3.75;2.62;;;;;;;;;;4382129;32;317011;-79
2023/09/05 14:29:00;;;;;;;4.65;3.05;;;;;;;;;;4369116;32;316921;-82
2023/09/05 14:31:27;;;;;;;5.37;3.35;;;;;;;;;;4382155;32;344308;-80
2023/09/05 14:33:55;;;;;;;3.75;2.83;;;;;;;;;;4369224;32;348282;-79
2023/09/05 14:36:25;;;;;;;7.47;3.00;;;;;;;;;;4382952;32;316721;-79